Time;durP1;ratioP1;P1;durP2;ratioP2;P2;SDS_P1;SDS_P2;PMS_P1;PMS_P2;Temp;Humidity;BMP_temperature;BMP_pressure;BME280_temperature;BME280_humidity;BME280_pressure;Samples;Min_cycle;Max_cycle;Signal;HPM_P1;HPM_P2
2023/05/19 00:02:07;;;;;;;;;;;;;;;16.18;76.83;100188.66;4431566;32;34415;-90
2023/05/19 00:04:39;;;;;;;;;;;;;;;15.46;78.96;100187.94;4431150;32;33952;-90
2023/05/19 00:07:08;;;;;;;;;;;;;;;15.85;77.30;100188.69;4438425;32;33175;-90
2023/05/19 00:09:37;;;;;;;;;;;;;;;15.95;77.29;100184.94;4437526;32;33081;-90
2023/05/19 00:12:06;;;;;;;;;;;;;;;16.17;75.85;100184.34;4434158;32;33309;-90
2023/05/19 00:14:35;;;;;;;;;;;;;;;16.18;75.12;100186.03;4430533;32;34463;-90
2023/05/19 00:17:07;;;;;;;;;;;;;;;16.13;75.06;100183.53;4436471;32;34003;-89
2023/05/19 00:19:36;;;;;;;;;;;;;;;16.11;74.73;100181.88;4433636;32;34657;-89
2023/05/19 00:22:09;;;;;;;;;;;;;;;16.18;74.00;100191.28;4431832;32;35525;-90
2023/05/19 00:24:38;;;;;;;;;;;;;;;16.19;73.51;100186.00;4431247;32;33576;-90
2023/05/19 00:27:06;;;;;;;;;;;;;;;16.06;74.23;100186.37;4431003;32;33587;-90
2023/05/19 00:29:35;;;;;;;;;;;;;;;16.08;73.85;100188.06;4435829;32;33551;-89
2023/05/19 00:32:03;;;;;;;;;;;;;;;16.17;73.11;100184.34;4431198;32;33416;-90
2023/05/19 00:34:32;;;;;;;;;;;;;;;16.00;73.34;100177.81;4431089;32;33785;-89
2023/05/19 00:37:00;;;;;;;;;;;;;;;16.09;72.77;100176.69;4429749;32;34182;-90
2023/05/19 00:39:32;;;;;;;;;;;;;;;15.99;73.42;100180.44;4426258;32;33281;-90
2023/05/19 00:42:01;;;;;;;;;;;;;;;15.89;73.45;100171.16;4430799;32;33817;-90
2023/05/19 00:44:30;;;;;;;;;;;;;;;15.89;73.25;100174.62;4431044;32;33808;-90
2023/05/19 00:46:58;;;;;;;;;;;;;;;15.64;74.14;100178.78;4428843;32;33649;-90
2023/05/19 00:49:27;;;;;;;;;;;;;;;15.43;75.07;100182.78;4430874;32;34185;-90
2023/05/19 00:51:55;;;;;;;;;;;;;;;15.71;73.74;100181.22;4435677;32;33729;-89
2023/05/19 00:54:24;;;;;;;;;;;;;;;15.75;73.48;100182.84;4428183;32;33815;-90
2023/05/19 00:56:55;;;;;;;;;;;;;;;15.75;73.07;100181.97;4430711;32;34163;-89
2023/05/19 00:59:24;;;;;;;;;;;;;;;15.60;73.73;100177.13;4431022;32;33553;-89
2023/05/19 01:01:52;;;;;;;;;;;;;;;15.55;74.05;100179.84;4435918;32;34176;-89
2023/05/19 01:04:24;;;;;;;;;;;;;;;15.74;72.81;100175.87;4430798;32;34123;-89
2023/05/19 01:06:53;;;;;;;;;;;;;;;15.78;72.81;100172.31;4430920;32;33705;-89
2023/05/19 01:09:22;;;;;;;;;;;;;;;15.70;73.09;100176.84;4430913;32;32846;-89
2023/05/19 01:11:51;;;;;;;;;;;;;;;15.74;72.71;100170.66;4428204;32;34258;-90
2023/05/19 01:14:21;;;;;;;;;;;;;;;15.57;73.60;100176.31;4435208;32;34005;-90
2023/05/19 01:16:51;;;;;;;;;;;;;;;15.58;73.10;100178.03;4431104;32;34370;-90
2023/05/19 01:19:27;;;;;;;;;;;;;;;15.68;72.67;100165.56;4430656;32;33757;-89
2023/05/19 01:22:00;;;;;;;;;;;;;;;15.60;72.70;100177.13;4430782;32;33749;-90
2023/05/19 01:24:34;;;;;;;;;;;;;;;15.56;72.92;100177.22;4434182;32;33853;-89
2023/05/19 01:27:09;;;;;;;;;;;;;;;15.46;72.88;100185.31;4435833;32;34209;-90
2023/05/19 01:29:45;;;;;;;;;;;;;;;15.45;72.87;100181.00;4429999;32;33653;-90
2023/05/19 01:32:17;;;;;;;;;;;;;;;15.65;72.03;100183.94;4438064;32;34153;-90
2023/05/19 01:34:46;;;;;;;;;;;;;;;15.66;71.88;100187.44;4437017;32;33617;-89
2023/05/19 01:37:14;;;;;;;;;;;;;;;15.47;72.74;100187.91;4435261;32;33982;-90
2023/05/19 01:39:43;;;;;;;;;;;;;;;15.46;72.72;100190.53;4430302;32;33350;-89
2023/05/19 01:42:11;;;;;;;;;;;;;;;15.36;73.34;100182.91;4429236;32;34586;-90
2023/05/19 01:44:40;;;;;;;;;;;;;;;15.27;73.63;100177.06;4427232;32;33981;-89
2023/05/19 01:47:09;;;;;;;;;;;;;;;15.39;72.93;100176.78;4429946;32;34879;-90
2023/05/19 01:49:39;;;;;;;;;;;;;;;15.47;72.34;100172.22;4433440;32;33692;-89
2023/05/19 01:52:08;;;;;;;;;;;;;;;15.31;72.74;100174.34;4427098;32;33620;-89
2023/05/19 01:54:36;;;;;;;;;;;;;;;15.25;72.85;100168.44;4428606;32;34110;-90
2023/05/19 01:57:10;;;;;;;;;;;;;;;15.25;72.57;100174.50;4429620;32;33397;-89
2023/05/19 01:59:42;;;;;;;;;;;;;;;15.42;71.76;100174.09;4433745;32;33235;-89
2023/05/19 02:02:13;;;;;;;;;;;;;;;15.40;71.50;100173.25;4430192;32;32257;-89
2023/05/19 02:04:44;;;;;;;;;;;;;;;15.28;71.84;100174.44;4429542;32;33318;-91
2023/05/19 02:07:14;;;;;;;;;;;;;;;15.09;72.03;100181.84;4431801;32;33188;-89
2023/05/19 02:09:45;;;;;;;;;;;;;;;15.10;72.54;100180.97;4427388;32;33462;-90
2023/05/19 02:12:15;;;;;;;;;;;;;;;15.21;71.74;100175.47;4433173;32;34452;-89
2023/05/19 02:14:45;;;;;;;;;;;;;;;15.40;70.67;100169.78;4429214;32;33843;-89
2023/05/19 02:17:15;;;;;;;;;;;;;;;15.28;70.91;100177.03;4427292;32;33919;-90
2023/05/19 02:19:45;;;;;;;;;;;;;;;15.19;71.37;100179.03;4429150;32;33124;-89
2023/05/19 02:22:14;;;;;;;;;;;;;;;15.16;71.56;100182.56;4433707;32;34210;-89
2023/05/19 02:24:50;;;;;;;;;;;;;;;15.15;71.49;100176.50;4429192;32;33839;-89
2023/05/19 02:27:19;;;;;;;;;;;;;;;15.24;71.53;100172.78;4429677;32;33491;-89
2023/05/19 02:29:47;;;;;;;;;;;;;;;15.28;71.25;100177.03;4429181;32;32969;-89
2023/05/19 02:32:16;;;;;;;;;;;;;;;15.19;71.82;100172.03;4427333;32;33641;-89
2023/05/19 02:34:46;;;;;;;;;;;;;;;15.16;71.91;100166.88;4433777;32;34693;-89
2023/05/19 02:37:14;;;;;;;;;;;;;;;15.22;71.71;100171.97;4429094;32;34253;-90
2023/05/19 02:39:43;;;;;;;;;;;;;;;15.32;71.40;100172.59;4432029;32;33056;-89
2023/05/19 02:42:13;;;;;;;;;;;;;;;15.29;71.33;100170.06;4431178;32;32595;-90
2023/05/19 02:44:42;;;;;;;;;;;;;;;15.30;71.50;100167.41;4436418;32;34221;-89
2023/05/19 02:47:10;;;;;;;;;;;;;;;15.27;71.53;100166.59;4431828;32;33910;-89
2023/05/19 02:49:39;;;;;;;;;;;;;;;15.23;71.64;100171.06;4431676;32;34145;-90
2023/05/19 02:52:09;;;;;;;;;;;;;;;14.96;73.08;100169.13;4432005;32;33634;-89
2023/05/19 02:54:37;;;;;;;;;;;;;;;15.12;72.31;100171.31;4435295;32;34143;-90
2023/05/19 02:57:06;;;;;;;;;;;;;;;15.07;72.62;100169.72;4436029;32;33727;-89
2023/05/19 02:59:35;;;;;;;;;;;;;;;14.97;73.04;100173.44;4431379;32;34101;-89
2023/05/19 03:02:04;;;;;;;;;;;;;;;14.99;73.04;100177.75;4431688;32;34126;-89
2023/05/19 03:04:40;;;;;;;;;;;;;;;14.80;73.45;100173.84;4432038;32;33809;-89
2023/05/19 03:07:12;;;;;;;;;;;;;;;15.12;72.54;100180.91;4436633;32;33656;-89
2023/05/19 03:09:40;;;;;;;;;;;;;;;15.10;72.35;100187.94;4431420;32;32939;-89
2023/05/19 03:12:11;;;;;;;;;;;;;;;15.00;73.01;100189.03;4430850;32;33799;-89
2023/05/19 03:14:40;;;;;;;;;;;;;;;14.96;72.93;100188.28;4431405;32;33439;-89
2023/05/19 03:17:08;;;;;;;;;;;;;;;14.88;72.96;100190.19;4433970;32;33741;-89
2023/05/19 03:19:37;;;;;;;;;;;;;;;14.98;73.02;100196.06;4436472;32;33725;-89
2023/05/19 03:22:06;;;;;;;;;;;;;;;14.98;73.04;100190.84;4431559;32;33372;-89
2023/05/19 03:24:36;;;;;;;;;;;;;;;14.92;73.44;100190.09;4431572;32;34647;-89
2023/05/19 03:27:05;;;;;;;;;;;;;;;14.84;73.86;100194.62;4431141;32;34437;-89
2023/05/19 03:29:33;;;;;;;;;;;;;;;14.86;73.58;100190.25;4436297;32;33162;-89
2023/05/19 03:32:02;;;;;;;;;;;;;;;14.89;73.12;100187.56;4431786;32;35351;-89
2023/05/19 03:34:32;;;;;;;;;;;;;;;14.86;73.48;100185.00;4431461;32;34624;-89
2023/05/19 03:37:01;;;;;;;;;;;;;;;14.97;73.31;100191.75;4431776;32;33067;-89
2023/05/19 03:39:29;;;;;;;;;;;;;;;14.80;73.98;100181.69;4433778;32;33827;-89
2023/05/19 03:41:59;;;;;;;;;;;;;;;14.85;73.94;100185.03;4430797;32;34224;-90
2023/05/19 03:44:28;;;;;;;;;;;;;;;14.85;73.85;100188.50;4431538;32;35849;-89
2023/05/19 03:46:56;;;;;;;;;;;;;;;14.81;73.99;100183.37;4431122;32;33546;-90
2023/05/19 03:49:26;;;;;;;;;;;;;;;14.96;73.66;100184.81;4432463;32;32532;-89
2023/05/19 03:52:08;;;;;;;;;;;;;;;14.93;73.99;100186.59;4436287;32;34097;-89
2023/05/19 03:54:38;;;;;;;;;;;;;;;15.12;73.04;100180.91;4431613;32;35077;-89
2023/05/19 03:57:08;;;;;;;;;;;;;;;15.05;73.64;100182.84;4431219;32;34351;-89
2023/05/19 03:59:40;;;;;;;;;;;;;;;15.05;73.71;100195.03;4431488;32;33390;-89
2023/05/19 04:02:08;;;;;;;;;;;;;;;14.91;74.68;100191.00;4436104;32;34616;-89
2023/05/19 04:04:37;;;;;;;;;;;;;;;14.92;75.06;100190.09;4435290;32;33858;-89
2023/05/19 04:07:06;;;;;;;;;;;;;;;15.00;74.56;100189.03;4431401;32;34352;-88
2023/05/19 04:09:36;;;;;;;;;;;;;;;15.13;74.31;100193.09;4431560;32;32901;-89
2023/05/19 04:12:05;;;;;;;;;;;;;;;15.28;73.28;100190.09;4430927;32;33424;-89
2023/05/19 04:14:35;;;;;;;;;;;;;;;15.21;73.64;100195.53;4435849;32;33832;-89
2023/05/19 04:17:03;;;;;;;;;;;;;;;15.23;73.37;100193.75;4431190;32;34221;-89
2023/05/19 04:19:33;;;;;;;;;;;;;;;15.24;73.51;100201.53;4433321;32;33923;-90
2023/05/19 04:22:02;;;;;;;;;;;;;;;15.32;73.32;100203.97;4430821;32;34383;-89
2023/05/19 04:24:33;;;;;;;;;;;;;;;15.18;74.78;100203.44;4436294;32;33989;-89
2023/05/19 04:27:03;;;;;;;;;;;;;;;15.32;74.29;100210.06;4431791;32;33903;-90
2023/05/19 04:29:32;;;;;;;;;;;;;;;15.34;74.72;100210.88;4431652;32;33234;-89
2023/05/19 04:32:05;;;;;;;;;;;;;;;15.54;74.67;100206.91;4431401;32;34618;-90
2023/05/19 04:34:34;;;;;;;;;;;;;;;15.67;74.10;100210.91;4431066;32;34403;-89
2023/05/19 04:37:03;;;;;;;;;;;;;;;15.70;74.51;100207.41;4435669;32;34463;-89
2023/05/19 04:39:32;;;;;;;;;;;;;;;15.86;74.17;100219.19;4431207;32;33528;-90
2023/05/19 04:42:01;;;;;;;;;;;;;;;15.97;74.17;100221.50;4433101;32;34165;-89
2023/05/19 04:44:32;;;;;;;;;;;;;;;16.25;74.06;100215.53;4432745;32;33348;-89
2023/05/19 04:47:04;;;;;;;;;;;;;;;16.47;72.74;100221.00;4439374;32;35095;-89
2023/05/19 04:49:37;;;;;;;;;;;;;;;16.62;71.81;100224.03;4436304;32;33414;-89
2023/05/19 04:52:07;;;;;;;;;;;;;;;16.80;69.24;100221.81;4436725;32;34029;-89
2023/05/19 04:54:35;;;;;;;;;;;;;;;16.54;70.60;100230.41;4437085;32;34668;-89
2023/05/19 04:57:04;;;;;;;;;;;;;;;16.84;69.37;100228.66;4442838;32;32907;-89
2023/05/19 04:59:33;;;;;;;;;;;;;;;17.03;66.86;100232.44;4451571;32;33666;-89
2023/05/19 05:02:03;;;;;;;;;;;;;;;17.13;66.40;100230.41;4436340;32;34836;-89
2023/05/19 05:04:33;;;;;;;;;;;;;;;17.23;67.35;100215.22;4427959;32;34866;-89
2023/05/19 05:07:02;;;;;;;;;;;;;;;17.47;66.46;100230.16;4435989;32;34573;-90
2023/05/19 05:09:30;;;;;;;;;;;;;;;17.91;64.93;100225.19;4443162;32;34047;-89
2023/05/19 05:12:00;;;;;;;;;;;;;;;18.13;63.45;100227.06;4425984;32;34236;-89
2023/05/19 05:14:29;;;;;;;;;;;;;;;18.08;62.68;100234.25;4432028;32;34731;-89
2023/05/19 05:16:57;;;;;;;;;;;;;;;17.61;64.46;100239.31;4429388;32;33568;-89
2023/05/19 05:19:26;;;;;;;;;;;;;;;17.75;64.36;100238.88;4430792;32;34583;-89
2023/05/19 05:21:57;;;;;;;;;;;;;;;17.67;64.08;100239.97;4435861;32;33724;-89
2023/05/19 05:24:26;;;;;;;;;;;;;;;17.44;64.77;100248.59;4429591;32;33947;-89
2023/05/19 05:26:54;;;;;;;;;;;;;;;17.38;65.96;100246.19;4428404;32;34425;-89
2023/05/19 05:29:24;;;;;;;;;;;;;;;17.26;64.91;100243.97;4429509;32;32827;-89
2023/05/19 05:31:53;;;;;;;;;;;;;;;17.18;66.36;100245.97;4433350;32;34629;-89
2023/05/19 05:34:23;;;;;;;;;;;;;;;17.20;66.92;100246.78;4431541;32;34034;-90
2023/05/19 05:36:52;;;;;;;;;;;;;;;17.18;65.64;100241.59;4428575;32;34926;-91
2023/05/19 05:39:21;;;;;;;;;;;;;;;17.02;65.91;100235.09;4428146;32;33273;-89
2023/05/19 05:41:53;;;;;;;;;;;;;;;16.66;67.57;100245.75;4439864;32;34216;-89
2023/05/19 05:44:22;;;;;;;;;;;;;;;16.82;66.90;100238.34;4439742;32;33754;-89
2023/05/19 05:46:51;;;;;;;;;;;;;;;17.00;65.25;100240.37;4436088;32;33451;-88
2023/05/19 05:49:20;;;;;;;;;;;;;;;17.03;65.55;100242.06;4430451;32;32873;-89
2023/05/19 05:51:49;;;;;;;;;;;;;;;17.02;66.07;100248.22;4428142;32;33687;-89
2023/05/19 05:54:34;;;;;;;;;;;;;;;16.97;66.21;100248.34;4433005;32;33652;-90
2023/05/19 05:57:04;;;;;;;;;;;;;;;17.24;65.66;100249.25;4429771;32;33676;-89
2023/05/19 05:59:33;;;;;;;;;;;;;;;17.34;64.89;100247.19;4430223;32;32775;-89
2023/05/19 06:02:02;;;;;;;;;;;;;;;17.26;65.93;100247.44;4429814;32;34162;-89
2023/05/19 06:04:31;;;;;;;;;;;;;;;17.42;65.86;100250.44;4430064;32;35136;-89
2023/05/19 06:07:00;;;;;;;;;;;;;;;17.64;64.56;100244.50;4434853;32;34217;-89
2023/05/19 06:09:32;;;;;;;;;;;;;;;17.67;64.81;100249.63;4429906;32;32944;-89
2023/05/19 06:12:02;;;;;;;;;;;;;;;17.75;64.90;100252.00;4428836;32;34838;-89
2023/05/19 06:14:31;;;;;;;;;;;;;;;17.80;63.73;100260.56;4428886;32;35487;-89
2023/05/19 06:17:04;;;;;;;;;;;;;;;17.53;66.43;100259.72;4437229;32;33806;-89
2023/05/19 06:19:33;;;;;;;;;;;;;;;17.76;65.88;100262.44;4435549;32;33434;-88
2023/05/19 06:22:03;;;;;;;;;;;;;;;17.76;64.85;100257.19;4437625;32;34261;-89
2023/05/19 06:24:32;;;;;;;;;;;;;;;17.77;66.02;100261.53;4439158;32;33749;-89
2023/05/19 06:27:02;;;;;;;;;;;;;;;18.15;63.71;100259.38;4434585;32;34431;-89
2023/05/19 06:29:30;;;;;;;;;;;;;;;17.80;64.31;100266.69;4446311;32;33227;-89
2023/05/19 06:32:01;;;;;;;;;;;;;;;17.92;63.76;100261.03;4435931;32;34391;-89
2023/05/19 06:34:30;;;;;;;;;;;;;;;18.25;63.19;100259.91;4438037;32;34263;-89
2023/05/19 06:37:01;;;;;;;;;;;;;;;18.08;62.37;100257.87;4438774;32;33885;-88
2023/05/19 06:39:31;;;;;;;;;;;;;;;18.09;62.59;100264.84;4442768;32;32850;-89
2023/05/19 06:41:59;;;;;;;;;;;;;;;18.08;63.13;100263.13;4434528;32;34093;-89
2023/05/19 06:44:40;;;;;;;;;;;;;;;18.13;61.96;100272.56;4436468;32;33697;-89
2023/05/19 06:47:09;;;;;;;;;;;;;;;18.19;62.22;100281.97;4433286;32;34408;-90
2023/05/19 06:49:38;;;;;;;;;;;;;;;18.24;61.42;100287.06;4437934;32;33154;-89
2023/05/19 06:52:07;;;;;;;;;;;;;;;18.27;61.00;100287.84;4441952;32;33521;-89
2023/05/19 06:54:35;;;;;;;;;;;;;;;18.60;60.63;100287.50;4439961;32;34103;-89
2023/05/19 06:57:04;;;;;;;;;;;;;;;18.85;60.46;100291.91;4436468;32;33948;-89
2023/05/19 06:59:33;;;;;;;;;;;;;;;18.95;59.46;100283.59;4432676;32;32829;-90
2023/05/19 07:02:03;;;;;;;;;;;;;;;18.90;58.19;100295.22;4443984;32;33640;-89
2023/05/19 07:04:33;;;;;;;;;;;;;;;19.43;58.57;100287.00;4437870;32;34337;-89
2023/05/19 07:07:01;;;;;;;;;;;;;;;19.90;58.86;100296.53;4438072;32;33631;-90
2023/05/19 07:09:30;;;;;;;;;;;;;;;19.92;56.55;100285.00;4437824;32;31653;-90
2023/05/19 07:12:00;;;;;;;;;;;;;;;20.01;55.71;100286.41;4434654;32;34166;-89
2023/05/19 07:14:28;;;;;;;;;;;;;;;19.85;57.45;100280.91;4436388;32;33699;-90
2023/05/19 07:16:57;;;;;;;;;;;;;;;19.72;57.29;100282.38;4429403;32;34529;-89
2023/05/19 07:19:27;;;;;;;;;;;;;;;20.04;56.74;100281.84;4431347;32;33636;-89
2023/05/19 07:21:56;;;;;;;;;;;;;;;20.13;55.71;100285.88;4436198;32;33178;-89
2023/05/19 07:24:26;;;;;;;;;;;;;;;20.36;55.72;100281.37;4438481;32;33515;-89
2023/05/19 07:26:55;;;;;;;;;;;;;;;20.02;56.06;100283.69;4437879;32;34335;-90
2023/05/19 07:29:23;;;;;;;;;;;;;;;20.23;55.33;100273.16;4440046;32;34721;-90
2023/05/19 07:31:56;;;;;;;;;;;;;;;20.22;57.40;100274.06;4438820;32;34855;-90
2023/05/19 07:34:25;;;;;;;;;;;;;;;20.51;56.37;100269.28;4437431;32;34486;-91
2023/05/19 07:36:55;;;;;;;;;;;;;;;20.87;55.35;100272.91;4443741;32;33785;-89
2023/05/19 07:39:26;;;;;;;;;;;;;;;20.85;53.38;100279.19;4437690;32;33499;-90
2023/05/19 07:41:58;;;;;;;;;;;;;;;20.29;55.02;100272.88;4443303;32;34087;-89
2023/05/19 07:44:26;;;;;;;;;;;;;;;20.15;57.08;100267.34;4434445;32;36574;-90
2023/05/19 07:46:55;;;;;;;;;;;;;;;20.18;56.22;100275.16;4438816;32;34217;-89
2023/05/19 07:49:23;;;;;;;;;;;;;;;20.30;55.38;100277.25;4438791;32;32812;-89
2023/05/19 07:51:52;;;;;;;;;;;;;;;19.68;57.94;100272.88;4423613;32;33694;-90
2023/05/19 07:54:22;;;;;;;;;;;;;;;20.26;56.82;100275.66;4428640;32;33694;-90
2023/05/19 07:56:51;;;;;;;;;;;;;;;20.09;56.13;100272.91;4439360;32;33391;-90
2023/05/19 07:59:24;;;;;;;;;;;;;;;20.35;53.47;100271.78;4445317;32;32807;-90
2023/05/19 08:01:52;;;;;;;;;;;;;;;20.29;54.83;100269.38;4431254;32;34189;-89
2023/05/19 08:04:21;;;;;;;;;;;;;;;20.53;55.11;100273.56;4428864;32;33356;-89
2023/05/19 08:06:51;;;;;;;;;;;;;;;20.44;53.92;100266.94;4428413;32;34706;-90
2023/05/19 08:09:19;;;;;;;;;;;;;;;20.19;55.59;100268.94;4440470;32;33202;-89
2023/05/19 08:11:49;;;;;;;;;;;;;;;20.15;54.63;100259.44;4437275;32;34510;-89
2023/05/19 08:14:18;;;;;;;;;;;;;;;20.16;55.65;100256.75;4427642;32;33715;-89
2023/05/19 08:16:46;;;;;;;;;;;;;;;20.08;56.44;100252.75;4429763;32;32671;-90
2023/05/19 08:19:15;;;;;;;;;;;;;;;20.44;55.54;100248.50;4432620;32;32906;-89
2023/05/19 08:21:44;;;;;;;;;;;;;;;20.41;54.32;100259.16;4428761;32;33652;-89
2023/05/19 08:24:12;;;;;;;;;;;;;;;20.34;53.79;100256.88;4435700;32;35259;-89
2023/05/19 08:26:41;;;;;;;;;;;;;;;20.13;54.90;100266.59;4440463;32;34832;-90
2023/05/19 08:29:11;;;;;;;;;;;;;;;20.09;55.81;100255.31;4427170;32;32735;-90
2023/05/19 08:31:39;;;;;;;;;;;;;;;20.41;55.38;100263.56;4441772;32;34043;-89
2023/05/19 08:34:08;;;;;;;;;;;;;;;20.48;52.64;100259.75;4436863;32;35095;-89
2023/05/19 08:36:36;;;;;;;;;;;;;;;20.60;54.54;100247.81;4433112;32;34057;-90
2023/05/19 08:39:05;;;;;;;;;;;;;;;20.59;55.01;100252.25;4443538;32;32743;-90
2023/05/19 08:41:34;;;;;;;;;;;;;;;20.82;54.52;100253.81;4434981;32;33782;-91
2023/05/19 08:44:02;;;;;;;;;;;;;;;21.09;52.69;100249.03;4430994;32;33983;-89
2023/05/19 08:46:32;;;;;;;;;;;;;;;20.76;53.43;100253.25;4428886;32;34538;-89
2023/05/19 08:49:02;;;;;;;;;;;;;;;20.98;53.80;100259.22;4427933;32;33092;-89
2023/05/19 08:51:36;;;;;;;;;;;;;;;21.16;54.92;100252.22;4426223;32;34465;-91
2023/05/19 08:54:07;;;;;;;;;;;;;;;21.17;53.69;100258.38;4434634;32;34171;-89
2023/05/19 08:56:36;;;;;;;;;;;;;;;21.01;52.30;100253.78;4430247;32;33858;-90
2023/05/19 08:59:07;;;;;;;;;;;;;;;21.31;52.65;100248.84;4427701;32;32864;-89
2023/05/19 09:01:36;;;;;;;;;;;;;;;21.08;54.36;100247.31;4437403;32;34514;-89
2023/05/19 09:04:10;;;;;;;;;;;;;;;20.91;55.46;100243.78;4443129;32;33746;-89
2023/05/19 09:06:41;;;;;;;;;;;;;;;21.15;56.21;100250.50;4433717;32;33546;-90
2023/05/19 09:09:09;;;;;;;;;;;;;;;21.25;54.35;100251.78;4435347;32;34057;-89
2023/05/19 09:11:38;;;;;;;;;;;;;;;21.09;55.61;100251.66;4432734;32;35084;-89
2023/05/19 09:14:09;;;;;;;;;;;;;;;20.97;53.84;100246.97;4425658;32;34825;-90
2023/05/19 09:16:40;;;;;;;;;;;;;;;20.89;54.84;100249.94;4434403;32;34433;-89
2023/05/19 09:19:14;;;;;;;;;;;;;;;20.94;55.04;100243.63;4428177;32;35211;-89
2023/05/19 09:21:44;;;;;;;;;;;;;;;21.23;54.94;100250.13;4429009;32;33874;-89
2023/05/19 09:24:13;;;;;;;;;;;;;;;21.38;53.66;100249.38;4430861;32;33891;-90
2023/05/19 09:26:42;;;;;;;;;;;;;;;21.56;53.49;100250.31;4436590;32;34372;-89
2023/05/19 09:29:11;;;;;;;;;;;;;;;21.71;53.58;100241.59;4434967;32;32440;-89
2023/05/19 09:31:43;;;;;;;;;;;;;;;21.78;53.19;100244.78;4432279;32;34472;-89
2023/05/19 09:34:15;;;;;;;;;;;;;;;21.82;51.95;100243.72;4436674;32;34286;-89
2023/05/19 09:36:44;;;;;;;;;;;;;;;22.12;51.01;100246.56;4438751;32;33890;-90
2023/05/19 09:39:13;;;;;;;;;;;;;;;22.01;51.44;100245.41;4441028;32;33504;-91
2023/05/19 09:41:42;;;;;;;;;;;;;;;22.26;50.35;100239.72;4429954;32;33449;-91
2023/05/19 09:44:13;;;;;;;;;;;;;;;22.50;50.22;100238.41;4427426;32;33887;-90
2023/05/19 09:46:50;;;;;;;;;;;;;;;22.57;50.73;100238.94;4427959;32;34334;-89
2023/05/19 09:49:19;;;;;;;;;;;;;;;22.08;52.63;100225.66;4433793;32;34371;-89
2023/05/19 09:51:51;;;;;;;;;;;;;;;21.81;53.50;100230.56;4429762;32;33700;-90
2023/05/19 09:54:20;;;;;;;;;;;;;;;22.23;50.77;100222.25;4431837;32;33753;-89
2023/05/19 09:56:51;;;;;;;;;;;;;;;22.09;51.50;100219.44;4420434;32;33642;-89
2023/05/19 09:59:20;;;;;;;;;;;;;;;21.27;52.54;100215.59;4436978;32;33023;-90
2023/05/19 10:01:50;;;;;;;;;;;;;;;22.08;50.55;100217.72;4437356;32;33831;-90
2023/05/19 10:04:18;;;;;;;;;;;;;;;22.33;50.20;100207.59;4432319;32;33109;-89
2023/05/19 10:06:48;;;;;;;;;;;;;;;22.09;51.88;100211.53;4431999;32;34494;-89
2023/05/19 10:09:16;;;;;;;;;;;;;;;22.30;50.83;100210.41;4432325;32;33679;-89
2023/05/19 10:11:45;;;;;;;;;;;;;;;22.23;53.08;100203.75;4436347;32;33629;-89
2023/05/19 10:14:13;;;;;;;;;;;;;;;22.17;51.78;100204.03;4431612;32;34249;-89
2023/05/19 10:16:41;;;;;;;;;;;;;;;22.44;52.26;100193.78;4432372;32;33802;-89
2023/05/19 10:19:14;;;;;;;;;;;;;;;22.61;50.83;100199.94;4437617;32;34478;-89
2023/05/19 10:21:42;;;;;;;;;;;;;;;22.26;51.25;100200.09;4432053;32;34588;-89
2023/05/19 10:24:11;;;;;;;;;;;;;;;22.53;50.64;100201.22;4441065;32;33699;-90
2023/05/19 10:26:40;;;;;;;;;;;;;;;22.38;50.95;100199.44;4434566;32;33919;-89
2023/05/19 10:29:09;;;;;;;;;;;;;;;22.26;50.39;100197.44;4441705;32;33226;-88
2023/05/19 10:31:39;;;;;;;;;;;;;;;22.53;51.45;100203.88;4444821;32;33741;-90
2023/05/19 10:34:12;;;;;;;;;;;;;;;22.92;50.25;100192.00;4443382;32;34453;-89
2023/05/19 10:36:46;;;;;;;;;;;;;;;23.21;48.64;100187.72;4442651;32;34797;-89
2023/05/19 10:39:17;;;;;;;;;;;;;;;22.69;50.56;100187.16;4442311;32;32798;-90
2023/05/19 10:41:46;;;;;;;;;;;;;;;22.60;51.28;100185.03;4439786;32;33756;-90
2023/05/19 10:44:17;;;;;;;;;;;;;;;22.40;51.92;100183.47;4435559;32;33862;-89
2023/05/19 10:46:46;;;;;;;;;;;;;;;22.73;50.45;100189.53;4436911;32;33749;-89
2023/05/19 10:49:19;;;;;;;;;;;;;;;23.34;47.30;100179.94;4443049;32;34531;-89
2023/05/19 10:51:49;;;;;;;;;;;;;;;23.19;48.93;100183.47;4434585;32;33931;-90
2023/05/19 10:54:21;;;;;;;;;;;;;;;23.17;48.47;100180.06;4427871;32;33824;-89
2023/05/19 10:56:50;;;;;;;;;;;;;;;23.34;48.83;100173.78;4433948;32;33728;-88
2023/05/19 10:59:32;;;;;;;;;;;;;;;23.55;47.48;100171.66;4428709;32;34031;-90
2023/05/19 11:02:03;;;;;;;;;;;;;;;23.45;47.44;100170.53;4428528;32;34482;-90
2023/05/19 11:04:45;;;;;;;;;;;;;;;23.90;47.27;100172.25;4429613;32;34259;-89
2023/05/19 11:07:20;;;;;;;;;;;;;;;23.95;44.99;100164.84;4430138;32;34357;-90
2023/05/19 11:09:52;;;;;;;;;;;;;;;23.72;44.51;100158.25;4431698;32;32554;-90
2023/05/19 11:12:21;;;;;;;;;;;;;;;23.86;46.08;100152.16;4433849;32;33268;-88
2023/05/19 11:14:52;;;;;;;;;;;;;;;23.45;46.61;100162.56;4427224;32;33635;-88
2023/05/19 11:17:22;;;;;;;;;;;;;;;24.21;44.50;100168.56;4426977;32;34025;-87
2023/05/19 11:19:54;;;;;;;;;;;;;;;23.81;45.97;100160.41;4429327;32;33832;-90
2023/05/19 11:22:25;;;;;;;;;;;;;;;23.95;46.20;100162.22;4432267;32;33786;-90
2023/05/19 11:24:59;;;;;;;;;;;;;;;24.00;45.11;100170.72;4425142;32;34307;-86
2023/05/19 11:27:30;;;;;;;;;;;;;;;24.29;43.63;100165.41;4423350;32;33930;-89
2023/05/19 11:30:00;;;;;;;;;;;;;;;24.68;44.37;100163.88;4424041;32;32900;-88
2023/05/19 11:32:32;;;;;;;;;;;;;;;24.54;44.99;100158.59;4426518;32;33539;-90
2023/05/19 11:35:00;;;;;;;;;;;;;;;24.85;42.85;100165.44;4433346;32;33816;-89
2023/05/19 11:37:33;;;;;;;;;;;;;;;24.77;43.60;100165.09;4426788;32;33523;-88
2023/05/19 11:40:02;;;;;;;;;;;;;;;24.73;43.48;100163.56;4432976;32;33517;-87
2023/05/19 11:42:31;;;;;;;;;;;;;;;25.37;42.91;100167.34;4431326;32;34045;-90
2023/05/19 11:45:00;;;;;;;;;;;;;;;24.81;42.04;100170.06;4433613;32;33891;-87
2023/05/19 11:47:28;;;;;;;;;;;;;;;24.58;42.69;100163.59;4429102;32;34784;-86
2023/05/19 11:50:04;;;;;;;;;;;;;;;24.43;42.50;100161.91;4428894;32;32987;-90
2023/05/19 11:52:34;;;;;;;;;;;;;;;25.13;40.72;100161.81;4429142;32;34591;-87
2023/05/19 11:55:02;;;;;;;;;;;;;;;25.44;39.81;100165.09;4429702;32;33891;-90
2023/05/19 11:57:33;;;;;;;;;;;;;;;25.28;40.61;100165.28;4431751;32;35192;-87
2023/05/19 12:00:07;;;;;;;;;;;;;;;25.64;40.47;100163.75;4427617;32;33007;-87
2023/05/19 12:02:36;;;;;;;;;;;;;;;25.29;40.35;100161.66;4428536;32;34589;-88
2023/05/19 12:05:05;;;;;;;;;;;;;;;24.30;42.70;100158.31;4427657;32;33614;-87
2023/05/19 12:07:35;;;;;;;;;;;;;;;25.53;39.77;100152.03;4433101;32;33964;-89
2023/05/19 12:10:03;;;;;;;;;;;;;;;24.78;43.14;100156.16;4401843;32;870206;-86
2023/05/19 12:12:34;;;;;;;;;;;;;;;25.00;42.42;100160.91;4427862;32;34236;-88
2023/05/19 12:15:02;;;;;;;;;;;;;;;24.63;42.22;100148.25;4426528;32;34545;-90
2023/05/19 12:17:32;;;;;;;;;;;;;;;25.64;41.13;100145.16;4429925;32;34181;-89
2023/05/19 12:20:00;;;;;;;;;;;;;;;25.55;41.97;100142.16;4434687;32;34208;-87
2023/05/19 12:22:29;;;;;;;;;;;;;;;26.02;42.02;100134.53;4428368;32;33826;-90
2023/05/19 12:25:00;;;;;;;;;;;;;;;25.67;41.79;100134.31;4425941;32;34157;-89
2023/05/19 12:27:29;;;;;;;;;;;;;;;26.60;38.78;100132.19;4425953;32;34617;-89
2023/05/19 12:29:58;;;;;;;;;;;;;;;27.03;39.19;100123.69;4432493;32;33422;-88
2023/05/19 12:32:27;;;;;;;;;;;;;;;27.46;39.98;100123.13;4426648;32;33856;-89
2023/05/19 12:34:56;;;;;;;;;;;;;;;27.78;35.87;100120.62;4425180;32;33765;-87
2023/05/19 12:37:26;;;;;;;;;;;;;;;27.14;37.61;100113.09;4423281;32;34518;-87
2023/05/19 12:39:55;;;;;;;;;;;;;;;27.39;38.28;100109.41;4425240;32;33430;-89
2023/05/19 12:42:25;;;;;;;;;;;;;;;27.22;37.74;100101.87;4431307;32;33495;-89
2023/05/19 12:44:54;;;;;;;;;;;;;;;27.24;37.21;100105.28;4426842;32;33202;-87
2023/05/19 12:47:22;;;;;;;;;;;;;;;26.81;38.50;100103.16;4423290;32;34128;-89
2023/05/19 12:49:54;;;;;;;;;;;;;;;27.19;36.90;100096.78;4427307;32;32864;-88